createdAt,value
2022-09-02T00:01:59.849Z,95511.28
2022-09-02T00:04:27.629Z,95505.00
2022-09-02T00:06:54.987Z,95502.16
2022-09-02T00:09:24.009Z,95505.25
2022-09-02T00:11:52.398Z,95505.25
2022-09-02T00:14:24.829Z,95499.69
2022-09-02T00:16:51.807Z,95494.53
2022-09-02T00:19:22.222Z,95497.16
2022-09-02T00:21:49.889Z,95499.88
2022-09-02T00:24:17.158Z,95498.97
2022-09-02T00:26:44.581Z,95495.78
2022-09-02T00:29:12.112Z,95491.78
2022-09-02T00:31:39.115Z,95488.63
2022-09-02T00:34:05.976Z,95498.28
2022-09-02T00:36:33.969Z,95493.97
2022-09-02T00:39:00.733Z,95491.91
2022-09-02T00:41:29.153Z,95493.38
2022-09-02T00:43:55.831Z,95492.13
2022-09-02T00:46:25.036Z,95492.47
2022-09-02T00:49:17.263Z,95484.16
2022-09-02T00:51:53.122Z,95488.41
2022-09-02T00:54:22.553Z,95482.44
2022-09-02T00:56:55.756Z,95483.59
2022-09-02T00:59:51.046Z,95478.00
2022-09-02T01:02:18.803Z,95484.97
2022-09-02T01:04:45.633Z,95474.72
2022-09-02T01:07:12.620Z,95476.63
2022-09-02T01:09:40.220Z,95483.25
2022-09-02T01:12:07.881Z,95479.25
2022-09-02T01:14:35.242Z,95481.53
2022-09-02T01:17:03.021Z,95481.88
2022-09-02T01:19:37.475Z,95477.88
2022-09-02T01:22:15.637Z,95485.28
2022-09-02T01:24:42.441Z,95482.09
2022-09-02T01:27:09.324Z,95475.03
2022-09-02T01:29:36.496Z,95475.72
2022-09-02T01:32:03.609Z,95480.72
2022-09-02T01:34:31.759Z,95482.19
2022-09-02T01:36:58.544Z,95480.13
2022-09-02T01:39:25.536Z,95475.34
2022-09-02T01:41:52.516Z,95476.03
2022-09-02T01:44:19.354Z,95471.25
2022-09-02T01:46:49.221Z,95466.16
2022-09-02T01:49:16.008Z,95458.16
2022-09-02T01:51:43.429Z,95460.78
2022-09-02T01:54:11.050Z,95451.31
2022-09-02T01:56:38.393Z,95459.06
2022-09-02T01:59:05.553Z,95452.69
2022-09-02T02:01:32.428Z,95455.75
2022-09-02T02:03:59.860Z,95452.53
2022-09-02T02:06:27.020Z,95452.88
2022-09-02T02:08:54.847Z,95454.03
2022-09-02T02:11:25.239Z,95450.03
2022-09-02T02:13:57.142Z,95453.09
2022-09-02T02:16:24.322Z,95448.44
2022-09-02T02:18:51.253Z,95441.41
2022-09-02T02:21:19.110Z,95446.88
2022-09-02T02:23:47.745Z,95446.88
2022-09-02T02:26:14.444Z,95438.19
2022-09-02T02:28:41.410Z,95439.81
2022-09-02T02:31:09.432Z,95442.88
2022-09-02T02:33:36.801Z,95447.53
2022-09-02T02:36:05.822Z,95444.06
2022-09-02T02:38:37.422Z,95445.13
2022-09-02T02:41:04.634Z,95446.72
2022-09-02T02:43:31.334Z,95433.44
2022-09-02T02:45:58.144Z,95444.34
2022-09-02T02:48:25.398Z,95441.94
2022-09-02T02:50:52.458Z,95439.19
2022-09-02T02:53:19.330Z,95441.13
2022-09-02T02:55:49.813Z,95436.31
2022-09-02T02:58:18.525Z,95430.88
2022-09-02T03:00:48.744Z,95443.72
2022-09-02T03:03:17.113Z,95433.94
2022-09-02T03:05:44.117Z,95434.28
2022-09-02T03:08:11.373Z,95436.22
2022-09-02T03:10:40.499Z,95433.47
2022-09-02T03:13:09.445Z,95434.59
2022-09-02T03:15:39.220Z,95428.38
2022-09-02T03:18:06.296Z,95427.56
2022-09-02T03:20:33.804Z,95426.75
2022-09-02T03:23:03.916Z,95417.34
2022-09-02T03:25:36.123Z,95420.50
2022-09-02T03:28:11.515Z,95417.34
2022-09-02T03:30:39.740Z,95418.91
2022-09-02T03:33:07.232Z,95414.59
2022-09-02T03:35:39.602Z,95419.59
2022-09-02T03:38:07.695Z,95420.41
2022-09-02T03:40:35.151Z,95415.34
2022-09-02T03:43:03.119Z,95415.94
2022-09-02T03:45:31.265Z,95419.13
2022-09-02T03:48:03.435Z,95418.69
2022-09-02T03:50:37.386Z,95417.06
2022-09-02T03:53:05.052Z,95413.88
2022-09-02T03:55:32.100Z,95411.50
2022-09-02T03:57:59.050Z,95421.63
2022-09-02T04:00:27.292Z,95413.78
2022-09-02T04:02:55.022Z,95407.50
2022-09-02T04:05:22.948Z,95404.31
2022-09-02T04:07:53.039Z,95402.72
2022-09-02T04:10:21.402Z,95404.22
2022-09-02T04:12:51.490Z,95408.06
2022-09-02T04:15:19.964Z,95406.81
2022-09-02T04:17:49.299Z,95412.59
2022-09-02T04:20:19.253Z,95415.66
2022-09-02T04:22:46.074Z,95407.00
2022-09-02T04:25:13.735Z,95410.06
2022-09-02T04:27:40.728Z,95416.66
2022-09-02T04:30:09.337Z,95411.53
2022-09-02T04:32:40.892Z,95412.66
2022-09-02T04:35:09.415Z,95414.59
2022-09-02T04:37:38.515Z,95412.22
2022-09-02T04:40:06.140Z,95422.78
2022-09-02T04:42:33.879Z,95415.28
2022-09-02T04:45:00.628Z,95413.34
2022-09-02T04:47:27.861Z,95414.47
2022-09-02T04:49:55.647Z,95421.50
2022-09-02T04:52:23.040Z,95423.00
2022-09-02T04:54:50.503Z,95414.81
2022-09-02T04:57:17.878Z,95420.72
2022-09-02T04:59:45.180Z,95422.66
2022-09-02T05:02:12.337Z,95419.94
2022-09-02T05:04:40.137Z,95419.19
2022-09-02T05:07:13.796Z,95420.25
2022-09-02T05:09:44.558Z,95428.91
2022-09-02T05:12:11.335Z,95421.50
2022-09-02T05:14:44.807Z,95419.56
2022-09-02T05:17:11.623Z,95423.13
2022-09-02T05:19:42.154Z,95424.34
2022-09-02T05:22:09.294Z,95422.91
2022-09-02T05:24:39.794Z,95421.44
2022-09-02T05:27:10.359Z,95422.69
2022-09-02T05:29:37.401Z,95423.63
2022-09-02T05:32:05.127Z,95428.06
2022-09-02T05:34:33.235Z,95427.06
2022-09-02T05:37:02.831Z,95426.41
2022-09-02T05:39:31.735Z,95420.72
2022-09-02T05:41:59.812Z,95419.72
2022-09-02T05:44:26.624Z,95422.56
2022-09-02T05:46:54.205Z,95420.78
2022-09-02T05:49:21.036Z,95424.88
2022-09-02T05:51:58.482Z,95427.44
2022-09-02T05:54:35.847Z,95419.69
2022-09-02T05:57:13.303Z,95424.59
2022-09-02T05:59:45.367Z,95410.72
2022-09-02T06:02:20.550Z,95419.50
2022-09-02T06:04:49.634Z,95423.59
2022-09-02T06:07:19.008Z,95419.53
2022-09-02T06:09:48.843Z,95417.69
2022-09-02T06:12:17.387Z,95406.56
2022-09-02T06:14:44.767Z,95414.97
2022-09-02T06:17:12.239Z,95412.00
2022-09-02T06:19:45.710Z,95407.91
2022-09-02T06:22:13.201Z,95413.13
2022-09-02T06:24:42.050Z,95405.63
2022-09-02T06:27:13.769Z,95416.78
2022-09-02T06:29:45.864Z,95411.88
2022-09-02T06:32:15.000Z,95413.72
2022-09-02T06:34:42.104Z,95409.13
2022-09-02T06:37:09.614Z,95411.28
2022-09-02T06:39:40.093Z,95406.06
2022-09-02T06:42:07.375Z,95399.56
2022-09-02T06:44:44.522Z,95403.31
2022-09-02T06:47:11.338Z,95404.97
2022-09-02T06:49:38.226Z,95409.88
2022-09-02T06:52:05.795Z,95406.88
2022-09-02T06:54:36.214Z,95408.25
2022-09-02T06:57:11.377Z,95412.66
2022-09-02T06:59:38.727Z,95405.00
2022-09-02T07:02:06.077Z,95402.03
2022-09-02T07:04:34.090Z,95404.03
2022-09-02T07:07:03.775Z,95410.41
2022-09-02T07:09:34.319Z,95406.63
2022-09-02T07:12:09.052Z,95411.50
2022-09-02T07:14:42.493Z,95415.16
2022-09-02T07:17:13.103Z,95419.56
2022-09-02T07:19:39.862Z,95416.13
2022-09-02T07:22:07.385Z,95411.97
2022-09-02T07:24:39.988Z,95415.25
2022-09-02T07:27:07.603Z,95409.88
2022-09-02T07:29:35.132Z,95416.69
2022-09-02T07:32:02.346Z,95411.78
2022-09-02T07:34:29.806Z,95408.78
2022-09-02T07:37:01.848Z,95405.78
2022-09-02T07:39:30.249Z,95404.34
2022-09-02T07:41:57.199Z,95403.38
2022-09-02T07:44:24.402Z,95406.59
2022-09-02T07:46:53.150Z,95404.00
2022-09-02T07:49:24.110Z,95412.50
2022-09-02T07:51:51.794Z,95406.56
2022-09-02T07:54:23.536Z,95403.19
2022-09-02T07:56:52.074Z,95401.06
2022-09-02T07:59:19.681Z,95401.16
2022-09-02T08:01:47.001Z,95397.34
2022-09-02T08:04:14.745Z,95400.16
2022-09-02T08:06:41.901Z,95400.31
2022-09-02T08:09:10.673Z,95400.91
2022-09-02T08:11:43.049Z,95405.16
2022-09-02T08:14:12.298Z,95402.03
2022-09-02T08:16:39.954Z,95399.50
2022-09-02T08:19:08.358Z,95405.00
2022-09-02T08:21:35.165Z,95397.66
2022-09-02T08:24:02.236Z,95404.78
2022-09-02T08:26:30.028Z,95402.63
2022-09-02T08:28:57.093Z,95407.88
2022-09-02T08:31:24.078Z,95409.19
2022-09-02T08:33:50.791Z,95406.50
2022-09-02T08:36:17.711Z,95408.25
2022-09-02T08:38:44.594Z,95400.50
2022-09-02T08:41:22.624Z,95393.50
2022-09-02T08:43:52.570Z,95400.31
2022-09-02T08:46:22.391Z,95397.66
2022-09-02T08:49:15.044Z,95389.13
2022-09-02T08:51:51.068Z,95387.38
2022-09-02T08:54:51.603Z,95382.09
2022-09-02T08:57:18.490Z,95379.72
2022-09-02T08:59:45.305Z,95385.44
2022-09-02T09:02:26.705Z,95386.44
2022-09-02T09:05:20.241Z,95389.28
2022-09-02T09:07:46.901Z,95398.81
2022-09-02T09:10:36.042Z,95383.59
2022-09-02T09:13:21.008Z,95386.81
2022-09-02T09:15:47.785Z,95378.63
2022-09-02T09:18:19.234Z,95384.22
2022-09-02T09:20:46.757Z,95383.59
2022-09-02T09:23:36.095Z,95382.03
2022-09-02T09:26:16.693Z,95382.53
2022-09-02T09:28:46.654Z,95367.31
2022-09-02T09:31:17.692Z,95377.25
2022-09-02T09:34:04.657Z,95375.75
2022-09-02T09:36:40.636Z,95372.31
2022-09-02T09:39:21.057Z,95359.44
2022-09-02T09:41:49.416Z,95359.09
2022-09-02T09:44:34.376Z,95356.03
2022-09-02T09:47:02.386Z,95359.25
2022-09-02T09:49:32.031Z,95358.50
2022-09-02T09:51:59.202Z,95353.47
2022-09-02T09:54:27.726Z,95349.66
2022-09-02T09:56:55.802Z,95355.94
2022-09-02T09:59:43.499Z,95352.91
2022-09-02T10:02:27.559Z,95353.72
2022-09-02T10:05:10.488Z,95357.72
2022-09-02T10:07:40.521Z,95352.22
2022-09-02T10:10:19.933Z,95351.88
2022-09-02T10:12:49.351Z,95349.22
2022-09-02T10:15:25.088Z,95354.00
2022-09-02T10:18:05.123Z,95353.31
2022-09-02T10:21:15.612Z,95343.16
2022-09-02T10:24:21.055Z,95339.31
2022-09-02T10:26:50.518Z,95344.88
2022-09-02T10:29:35.479Z,95346.88
2022-09-02T10:32:18.895Z,95342.53
2022-09-02T10:35:25.488Z,95350.44
2022-09-02T10:38:07.094Z,95336.72
2022-09-02T10:41:18.823Z,95353.75
2022-09-02T10:43:45.809Z,95331.72
2022-09-02T10:46:18.045Z,95338.06
2022-09-02T10:48:55.842Z,95332.59
2022-09-02T10:51:59.548Z,95329.03
2022-09-02T10:54:41.375Z,95322.03
2022-09-02T10:57:26.671Z,95318.50
2022-09-02T11:00:14.313Z,95322.47
2022-09-02T11:03:13.195Z,95313.00
2022-09-02T11:05:53.858Z,95315.78
2022-09-02T11:08:41.047Z,95306.69
2022-09-02T11:11:19.052Z,95315.78
2022-09-02T11:13:57.696Z,95315.38
2022-09-02T11:16:33.736Z,95304.38
2022-09-02T11:19:07.355Z,95307.94
2022-09-02T11:21:52.735Z,95303.63
2022-09-02T11:24:31.314Z,95311.53
2022-09-02T11:27:03.263Z,95299.28
2022-09-02T11:29:37.141Z,95303.28
2022-09-02T11:32:21.769Z,95305.28
2022-09-02T11:34:55.808Z,95297.38
2022-09-02T11:37:33.336Z,95299.00
2022-09-02T11:40:33.400Z,95293.47
2022-09-02T11:43:15.362Z,95292.69
2022-09-02T11:46:06.313Z,95287.94
2022-09-02T11:49:17.416Z,95291.91
2022-09-02T11:51:58.704Z,95297.06
2022-09-02T11:54:33.416Z,95291.13
2022-09-02T11:57:04.060Z,95293.50
2022-09-02T11:59:50.899Z,95282.44
2022-09-02T12:02:36.241Z,95289.94
2022-09-02T12:05:30.715Z,95286.41
2022-09-02T12:08:00.011Z,95289.53
2022-09-02T12:10:41.872Z,95284.00
2022-09-02T12:13:11.343Z,95281.66
2022-09-02T12:15:40.965Z,95282.41
2022-09-02T12:18:14.220Z,95278.84
2022-09-02T12:20:40.964Z,95276.88
2022-09-02T12:23:10.086Z,95276.06
2022-09-02T12:25:49.382Z,95273.25
2022-09-02T12:28:24.188Z,95270.06
2022-09-02T12:30:55.141Z,95282.28
2022-09-02T12:33:35.548Z,95270.47
2022-09-02T12:36:04.437Z,95273.22
2022-09-02T12:38:38.206Z,95258.97
2022-09-02T12:41:05.063Z,95257.41
2022-09-02T12:43:45.406Z,95265.31
2022-09-02T12:46:40.441Z,95274.41
2022-09-02T12:49:27.329Z,95253.06
2022-09-02T12:52:22.237Z,95258.16
2022-09-02T12:54:50.397Z,95260.97
2022-09-02T12:57:18.912Z,95262.13
2022-09-02T12:59:47.760Z,95254.59
2022-09-02T13:02:14.373Z,95252.28
2022-09-02T13:05:18.381Z,95250.69
2022-09-02T13:08:20.248Z,95253.41
2022-09-02T13:11:05.618Z,95248.66
2022-09-02T13:13:58.121Z,95249.41
2022-09-02T13:16:39.572Z,95248.16
2022-09-02T13:19:27.435Z,95242.63
2022-09-02T13:22:03.748Z,95251.72
2022-09-02T13:24:33.299Z,95237.09
2022-09-02T13:27:20.327Z,95241.41
2022-09-02T13:29:59.334Z,95245.00
2022-09-02T13:32:29.148Z,95240.19
2022-09-02T13:34:59.265Z,95235.00
2022-09-02T13:37:37.193Z,95242.88
2022-09-02T13:40:27.129Z,95229.84
2022-09-02T13:42:59.039Z,95234.56
2022-09-02T13:45:27.944Z,95229.41
2022-09-02T13:47:57.696Z,95226.97
2022-09-02T13:50:30.289Z,95234.06
2022-09-02T13:55:53.784Z,95223.34
2022-09-02T13:58:29.292Z,95226.88
2022-09-02T14:01:17.397Z,95228.81
2022-09-02T14:03:49.443Z,95232.75
2022-09-02T14:06:18.410Z,95229.19
2022-09-02T14:08:45.763Z,95225.56
2022-09-02T14:11:17.609Z,95218.44
2022-09-02T14:13:48.571Z,95218.44
2022-09-02T14:16:29.516Z,95216.91
2022-09-02T14:19:07.553Z,95214.94
2022-09-02T14:21:35.684Z,95211.78
2022-09-02T14:24:03.091Z,95216.88
2022-09-02T14:26:38.557Z,95209.72
2022-09-02T14:29:06.498Z,95207.28
2022-09-02T14:31:33.794Z,95207.28
2022-09-02T14:34:01.642Z,95205.25
2022-09-02T14:36:33.741Z,95206.47
2022-09-02T14:39:18.015Z,95202.34
2022-09-02T14:41:50.508Z,95186.38
2022-09-02T14:44:21.912Z,95187.06
2022-09-02T14:46:56.998Z,95187.69
2022-09-02T14:49:29.938Z,95189.13
2022-09-02T14:51:59.581Z,95188.88
2022-09-02T14:54:39.511Z,95188.41
2022-09-02T14:57:26.602Z,95188.59
2022-09-02T14:59:54.260Z,95186.44
2022-09-02T15:02:26.606Z,95180.34
2022-09-02T15:04:57.945Z,95184.13
2022-09-02T15:07:25.851Z,95181.03
2022-09-02T15:09:52.576Z,95179.78
2022-09-02T15:12:34.112Z,95180.41
2022-09-02T15:15:01.109Z,95186.19
2022-09-02T15:17:28.143Z,95170.34
2022-09-02T15:19:54.936Z,95164.16
2022-09-02T15:22:24.466Z,95170.16
2022-09-02T15:24:51.888Z,95172.06
2022-09-02T15:27:18.981Z,95176.88
2022-09-02T15:29:49.273Z,95171.41
2022-09-02T15:32:16.380Z,95170.72
2022-09-02T15:34:43.225Z,95164.13
2022-09-02T15:37:13.039Z,95162.53
2022-09-02T15:39:40.292Z,95162.78
2022-09-02T15:42:07.097Z,95180.69
2022-09-02T15:44:33.850Z,95164.56
2022-09-02T15:47:00.585Z,95169.81
2022-09-02T15:49:27.373Z,95167.38
2022-09-02T15:51:55.243Z,95168.75
2022-09-02T15:54:24.198Z,95162.56
2022-09-02T15:56:55.866Z,95158.44
2022-09-02T15:59:23.120Z,95172.47
2022-09-02T16:01:52.273Z,95162.44
2022-09-02T16:04:19.300Z,95161.00
2022-09-02T16:06:48.020Z,95162.09
2022-09-02T16:09:17.207Z,95152.53
2022-09-02T16:11:46.341Z,95144.06
2022-09-02T16:14:13.177Z,95138.03
2022-09-02T16:16:39.971Z,95144.06
2022-09-02T16:19:06.979Z,95141.03
2022-09-02T16:21:34.341Z,95133.75
2022-09-02T16:24:01.085Z,95133.38
2022-09-02T16:26:29.842Z,95133.75
2022-09-02T16:28:59.884Z,95133.03
2022-09-02T16:31:29.162Z,95138.25
2022-09-02T16:33:58.362Z,95135.47
2022-09-02T16:36:26.848Z,95139.41
2022-09-02T16:39:00.425Z,95143.69
2022-09-02T16:41:30.129Z,95144.72
2022-09-02T16:43:59.310Z,95140.16
2022-09-02T16:46:27.465Z,95136.50
2022-09-02T16:48:54.731Z,95135.34
2022-09-02T16:51:22.921Z,95135.03
2022-09-02T16:54:03.640Z,95134.22
2022-09-02T16:56:31.357Z,95132.13
2022-09-02T16:59:03.198Z,95141.03
2022-09-02T17:01:32.587Z,95135.66
2022-09-02T17:04:00.450Z,95129.84
2022-09-02T17:06:28.084Z,95133.03
2022-09-02T17:08:55.367Z,95131.34
2022-09-02T17:11:28.604Z,95131.88
2022-09-02T17:14:03.806Z,95127.25
2022-09-02T17:16:37.399Z,95136.47
2022-09-02T17:19:05.174Z,95133.44
2022-09-02T17:21:32.005Z,95142.75
2022-09-02T17:24:05.499Z,95137.00
2022-09-02T17:29:06.514Z,95133.63
2022-09-02T17:31:33.950Z,95128.94
2022-09-02T17:34:02.478Z,95134.91
2022-09-02T17:36:31.004Z,95135.34
2022-09-02T17:39:00.327Z,95142.44
2022-09-02T17:41:27.258Z,95141.59
2022-09-02T17:43:53.882Z,95141.44
2022-09-02T17:46:21.140Z,95138.91
2022-09-02T17:49:12.861Z,95134.38
2022-09-02T17:51:34.920Z,95145.97
2022-09-02T17:54:01.851Z,95148.84
2022-09-02T17:56:39.595Z,95141.84
2022-09-02T17:59:27.762Z,95144.25
2022-09-02T18:02:09.383Z,95145.88
2022-09-02T18:05:03.002Z,95150.66
2022-09-02T18:07:57.041Z,95149.78
2022-09-02T18:10:23.658Z,95159.66
2022-09-02T18:12:50.245Z,95167.09
2022-09-02T18:15:18.476Z,95161.16
2022-09-02T18:17:49.568Z,95155.13
2022-09-02T18:20:41.850Z,95155.06
2022-09-02T18:23:54.855Z,95155.78
2022-09-02T18:26:52.434Z,95154.50
2022-09-02T18:30:08.739Z,95168.16
2022-09-02T18:33:02.825Z,95171.56
2022-09-02T18:36:07.193Z,95182.44
2022-09-02T18:38:46.950Z,95179.97
2022-09-02T18:41:28.851Z,95176.72
2022-09-02T18:44:20.848Z,95184.50
2022-09-02T18:46:57.054Z,95185.56
2022-09-02T18:49:25.839Z,95199.63
2022-09-02T18:51:58.805Z,95195.59
2022-09-02T18:54:33.984Z,95194.28
2022-09-02T18:57:08.011Z,95195.38
2022-09-02T18:59:47.199Z,95183.50
2022-09-02T19:02:28.383Z,95192.81
2022-09-02T19:04:58.232Z,95190.78
2022-09-02T19:12:51.941Z,95187.72
2022-09-02T19:15:19.212Z,95187.59
2022-09-02T19:17:45.762Z,95193.78
2022-09-02T19:20:12.306Z,95198.03
2022-09-02T19:22:46.879Z,95206.97
2022-09-02T19:25:19.218Z,95210.00
2022-09-02T19:27:48.268Z,95210.28
2022-09-02T19:30:17.923Z,95218.06
2022-09-02T19:32:50.902Z,95219.16
2022-09-02T19:35:20.027Z,95218.31
2022-09-02T19:37:51.185Z,95224.13
2022-09-02T19:40:22.622Z,95228.31
2022-09-02T19:42:49.212Z,95215.69
2022-09-02T19:45:16.801Z,95210.16
2022-09-02T19:48:05.965Z,95208.50
2022-09-02T19:50:30.443Z,95191.22
2022-09-02T19:52:57.022Z,95198.59
2022-09-02T19:55:23.608Z,95207.91
2022-09-02T19:57:50.218Z,95208.22
2022-09-02T20:00:17.359Z,95203.06
2022-09-02T20:02:43.913Z,95188.47
2022-09-02T20:05:12.888Z,95185.66
2022-09-02T20:07:39.852Z,95183.66
2022-09-02T20:10:07.939Z,95183.59
2022-09-02T20:12:35.134Z,95179.41
2022-09-02T20:15:02.290Z,95190.09
2022-09-02T20:17:28.817Z,95188.84
2022-09-02T20:19:55.704Z,95201.34
2022-09-02T20:22:22.521Z,95199.31
2022-09-02T20:24:49.112Z,95196.50
2022-09-02T20:27:35.919Z,95198.38
2022-09-02T20:30:15.358Z,95201.84
2022-09-02T20:33:14.832Z,95200.22
2022-09-02T20:36:05.768Z,95198.56
2022-09-02T20:38:43.951Z,95204.78
2022-09-02T20:41:27.178Z,95194.53
2022-09-02T20:44:37.653Z,95192.06
2022-09-02T20:47:41.245Z,95199.00
2022-09-02T20:50:33.168Z,95187.16
2022-09-02T20:53:27.762Z,95190.63
2022-09-02T20:56:02.084Z,95189.84
2022-09-02T20:58:36.677Z,95182.72
2022-09-02T21:01:07.504Z,95191.66
2022-09-02T21:03:58.333Z,95190.78
2022-09-02T21:06:30.478Z,95185.59
2022-09-02T21:09:08.815Z,95190.63
2022-09-02T21:11:51.903Z,95195.22
2022-09-02T21:14:23.806Z,95196.75
2022-09-02T21:17:00.879Z,95192.34
2022-09-02T21:19:41.548Z,95195.81
2022-09-02T21:22:19.822Z,95194.94
2022-09-02T21:25:00.831Z,95187.44
2022-09-02T21:28:05.071Z,95190.44
2022-09-02T21:30:38.675Z,95188.44
2022-09-02T21:33:10.146Z,95188.78
2022-09-02T21:35:47.429Z,95174.22
2022-09-02T21:38:40.912Z,95185.06
2022-09-02T21:41:35.410Z,95176.41
2022-09-02T21:44:23.081Z,95190.81
2022-09-02T21:47:18.656Z,95187.56
2022-09-02T21:50:06.289Z,95187.84
2022-09-02T21:52:55.786Z,95186.63
2022-09-02T21:55:35.016Z,95187.31
2022-09-02T21:58:10.831Z,95188.03
2022-09-02T22:00:45.675Z,95190.31
2022-09-02T22:03:38.466Z,95191.75
2022-09-02T22:06:13.620Z,95190.16
2022-09-02T22:08:49.115Z,95192.00
2022-09-02T22:11:29.624Z,95188.41
2022-09-02T22:13:59.683Z,95192.28
2022-09-02T22:16:52.669Z,95197.25
2022-09-02T22:19:22.041Z,95196.00
2022-09-02T22:21:52.303Z,95187.34
2022-09-02T22:24:22.303Z,95191.59
2022-09-02T22:26:53.009Z,95183.72
2022-09-02T22:29:48.049Z,95187.16
2022-09-02T22:32:19.048Z,95181.69
2022-09-02T22:34:55.854Z,95186.38
2022-09-02T22:37:28.220Z,95183.66
2022-09-02T22:39:56.239Z,95193.00
2022-09-02T22:42:33.098Z,95189.81
2022-09-02T22:45:02.274Z,95178.09
2022-09-02T22:47:32.902Z,95182.06
2022-09-02T22:50:02.258Z,95178.09
2022-09-02T22:52:34.501Z,95179.66
2022-09-02T22:55:01.105Z,95184.00
2022-09-02T22:58:00.958Z,95181.28
2022-09-02T23:00:32.160Z,95178.97
2022-09-02T23:03:14.261Z,95176.22
2022-09-02T23:05:58.044Z,95174.28
2022-09-02T23:08:24.736Z,95170.75
2022-09-02T23:11:07.656Z,95165.28
2022-09-02T23:13:52.726Z,95168.03
2022-09-02T23:16:56.644Z,95176.59
2022-09-02T23:19:32.244Z,95180.84
2022-09-02T23:22:07.516Z,95184.34
2022-09-02T23:24:46.713Z,95178.47
2022-09-02T23:27:28.260Z,95176.06
2022-09-02T23:29:54.940Z,95175.25
2022-09-02T23:32:48.598Z,95184.63
2022-09-02T23:35:22.928Z,95176.44
2022-09-02T23:38:11.001Z,95161.22
2022-09-02T23:40:54.149Z,95161.22
2022-09-02T23:43:20.900Z,95167.16
2022-09-02T23:45:48.020Z,95169.91
2022-09-02T23:48:24.766Z,95167.16
2022-09-02T23:51:26.635Z,95164.44
2022-09-02T23:54:21.316Z,95163.63
2022-09-02T23:57:09.115Z,95163.25
2022-09-02T23:59:41.771Z,95162.13
